createdAt,value
2023-05-05T00:00:29.406Z,69.4745
2023-05-05T00:01:32.070Z,69.7123
2023-05-05T00:02:34.661Z,70.0777
2023-05-05T00:03:37.267Z,70.2800
2023-05-05T00:04:37.197Z,70.0052
2023-05-05T00:05:39.914Z,69.9942
2023-05-05T00:06:42.566Z,69.6671
2023-05-05T00:07:45.092Z,69.0720
2023-05-05T00:08:47.599Z,69.0858
2023-05-05T00:09:50.134Z,69.5137
2023-05-05T00:10:52.774Z,71.0026
2023-05-05T00:11:55.367Z,71.4571
2023-05-05T00:12:57.901Z,71.4960
2023-05-05T00:14:00.396Z,71.6989
2023-05-05T00:15:02.875Z,72.2120
2023-05-05T00:16:05.367Z,72.2082
2023-05-05T00:17:07.878Z,72.4134
2023-05-05T00:18:10.375Z,72.3872
2023-05-05T00:19:12.879Z,72.4036
2023-05-05T00:20:15.449Z,72.4125
2023-05-05T00:21:17.944Z,72.4736
2023-05-05T00:22:20.538Z,72.3527
2023-05-05T00:23:23.217Z,72.1727
2023-05-05T00:24:25.745Z,72.1569
2023-05-05T00:25:28.290Z,72.0014
2023-05-05T00:26:30.838Z,71.8557
2023-05-05T00:27:33.332Z,72.0540
2023-05-05T00:28:35.839Z,72.3382
2023-05-05T00:29:38.368Z,72.3086
2023-05-05T00:30:40.933Z,72.4621
2023-05-05T00:31:43.524Z,72.5421
2023-05-05T00:32:46.120Z,72.2673
2023-05-05T00:33:48.612Z,72.1950
2023-05-05T00:34:51.130Z,72.0238
2023-05-05T00:35:53.638Z,72.0125
2023-05-05T00:36:56.132Z,72.1033
2023-05-05T00:37:58.709Z,72.0862
2023-05-05T00:39:01.246Z,72.1290
2023-05-05T00:40:03.913Z,71.8151
2023-05-05T00:41:06.388Z,71.6983
2023-05-05T00:42:08.967Z,72.0519
2023-05-05T00:43:11.511Z,71.7396
2023-05-05T00:44:14.082Z,71.6709
2023-05-05T00:45:16.655Z,71.7473
2023-05-05T00:46:19.589Z,71.8906
2023-05-05T00:47:19.269Z,71.9619
2023-05-05T00:48:21.740Z,71.8947
2023-05-05T00:49:24.278Z,71.9758
2023-05-05T00:50:26.762Z,72.0005
2023-05-05T00:51:29.316Z,72.2209
2023-05-05T00:52:31.813Z,72.4017
2023-05-05T00:53:34.383Z,72.5505
2023-05-05T00:54:36.956Z,72.5246
2023-05-05T00:55:39.577Z,72.4179
2023-05-05T00:56:42.075Z,72.5824
2023-05-05T00:57:44.628Z,72.7802
2023-05-05T00:58:47.245Z,73.1163
2023-05-05T00:59:47.332Z,73.2315
2023-05-05T01:00:49.860Z,73.4237
2023-05-05T01:01:52.498Z,73.7910
2023-05-05T01:02:55.237Z,73.9792
2023-05-05T01:03:55.331Z,74.0647
2023-05-05T01:04:57.841Z,74.1888
2023-05-05T01:06:00.425Z,74.1303
2023-05-05T01:07:03.003Z,73.8500
2023-05-05T01:08:05.611Z,73.7587
2023-05-05T01:09:08.236Z,73.7423
2023-05-05T01:10:19.559Z,74.0495
2023-05-05T01:11:10.871Z,73.5863
2023-05-05T01:12:13.512Z,73.3503
2023-05-05T01:13:16.114Z,72.7907
2023-05-05T01:14:18.686Z,72.0193
2023-05-05T01:15:21.229Z,71.8564
2023-05-05T01:16:23.850Z,72.0742
2023-05-05T01:17:23.768Z,72.2061
2023-05-05T01:18:26.315Z,72.7770
2023-05-05T01:19:28.920Z,73.4095
2023-05-05T01:20:31.499Z,73.9751
2023-05-05T01:21:34.070Z,74.3057
2023-05-05T01:22:36.631Z,74.7648
2023-05-05T01:23:39.236Z,75.2947
2023-05-05T01:24:41.803Z,75.8134
2023-05-05T01:25:44.349Z,75.8611
2023-05-05T01:26:46.942Z,75.9688
2023-05-05T01:27:49.514Z,75.8286
2023-05-05T01:28:52.100Z,75.9059
2023-05-05T01:29:54.689Z,76.0728
2023-05-05T01:30:57.315Z,76.2590
2023-05-05T01:31:59.886Z,76.7552
2023-05-05T01:33:02.508Z,76.9617
2023-05-05T01:34:05.093Z,77.0306
2023-05-05T01:35:07.696Z,77.0306
2023-05-05T01:36:10.196Z,77.2229
2023-05-05T01:37:12.806Z,77.1472
2023-05-05T01:38:15.382Z,77.0032
2023-05-05T01:39:18.029Z,76.8528
2023-05-05T01:40:20.606Z,76.6811
2023-05-05T01:41:23.239Z,76.6433
2023-05-05T01:42:25.865Z,76.6006
2023-05-05T01:43:28.446Z,76.4791
2023-05-05T01:44:31.069Z,76.2913
2023-05-05T01:45:33.778Z,76.2666
2023-05-05T01:46:36.395Z,76.2692
2023-05-05T01:47:39.033Z,76.1117
2023-05-05T01:48:42.370Z,76.0714
2023-05-05T01:49:42.287Z,76.1263
2023-05-05T01:50:44.910Z,76.2314
2023-05-05T01:51:47.495Z,76.1139
2023-05-05T01:52:50.066Z,76.0247
2023-05-05T01:53:52.668Z,75.6062
2023-05-05T01:54:55.222Z,75.4506
2023-05-05T01:55:57.823Z,75.4693
2023-05-05T01:57:00.340Z,75.4381
2023-05-05T01:58:02.963Z,75.4255
2023-05-05T01:59:05.507Z,75.6214
2023-05-05T02:00:08.280Z,75.7729
2023-05-05T02:01:08.307Z,75.6954
2023-05-05T02:02:10.992Z,75.3552
2023-05-05T02:03:13.706Z,75.5229
2023-05-05T02:04:16.378Z,75.4388
2023-05-05T02:05:18.954Z,75.1113
2023-05-05T02:06:21.603Z,75.3759
2023-05-05T02:07:24.200Z,75.6029
2023-05-05T02:08:26.827Z,75.6046
2023-05-05T02:09:29.428Z,75.3651
2023-05-05T02:10:32.079Z,74.9363
2023-05-05T02:11:34.701Z,74.4431
2023-05-05T02:12:37.377Z,73.9852
2023-05-05T02:13:40.049Z,72.6677
2023-05-05T02:14:42.618Z,72.3588
2023-05-05T02:15:45.297Z,71.7196
2023-05-05T02:16:47.877Z,71.2811
2023-05-05T02:17:50.488Z,70.7419
2023-05-05T02:18:53.105Z,70.3259
2023-05-05T02:19:55.737Z,70.2810
2023-05-05T02:20:58.307Z,70.0660
2023-05-05T02:22:00.893Z,69.7225
2023-05-05T02:23:03.465Z,70.1762
2023-05-05T02:24:06.079Z,72.0326
2023-05-05T02:25:08.719Z,72.6550
2023-05-05T02:26:11.332Z,72.7677
2023-05-05T02:27:13.933Z,72.5191
2023-05-05T02:28:16.521Z,71.9034
2023-05-05T02:29:19.215Z,72.7042
2023-05-05T02:30:22.041Z,73.2171
2023-05-05T02:31:22.100Z,73.6046
2023-05-05T02:32:22.133Z,74.0982
2023-05-05T02:33:22.139Z,74.0525
2023-05-05T02:34:24.726Z,74.2867
2023-05-05T02:35:27.435Z,74.6080
2023-05-05T02:36:29.972Z,74.9919
2023-05-05T02:37:32.562Z,75.4588
2023-05-05T02:38:35.138Z,75.8531
2023-05-05T02:39:37.695Z,76.0437
2023-05-05T02:40:40.350Z,76.2404
2023-05-05T02:41:42.975Z,76.4419
2023-05-05T02:42:45.606Z,76.5761
2023-05-05T02:43:48.225Z,76.4999
2023-05-05T02:44:50.815Z,76.7905
2023-05-05T02:45:53.417Z,77.1880
2023-05-05T02:46:56.061Z,77.2267
2023-05-05T02:47:58.688Z,77.2926
2023-05-05T02:49:01.261Z,77.4701
2023-05-05T02:50:03.915Z,77.6819
2023-05-05T02:51:06.550Z,77.8311
2023-05-05T02:52:09.137Z,77.9144
2023-05-05T02:53:11.764Z,77.8970
2023-05-05T02:54:14.389Z,77.9849
2023-05-05T02:55:17.084Z,78.0713
2023-05-05T02:56:19.714Z,78.2322
2023-05-05T02:57:22.402Z,78.3368
2023-05-05T02:58:25.103Z,78.3082
2023-05-05T02:59:27.745Z,78.6094
2023-05-05T03:00:30.292Z,78.6485
2023-05-05T03:01:32.977Z,78.5816
2023-05-05T03:02:35.710Z,78.4829
2023-05-05T03:03:35.546Z,78.2427
2023-05-05T03:04:38.098Z,77.8927
2023-05-05T03:05:40.732Z,77.6437
2023-05-05T03:06:43.294Z,77.3789
2023-05-05T03:07:45.819Z,77.4169
2023-05-05T03:08:48.391Z,77.5189
2023-05-05T03:09:51.065Z,77.6385
2023-05-05T03:10:53.622Z,77.8380
2023-05-05T03:11:56.337Z,77.4483
2023-05-05T03:12:58.940Z,77.5230
2023-05-05T03:14:01.558Z,77.9145
2023-05-05T03:15:04.151Z,77.8688
2023-05-05T03:16:06.895Z,77.9034
2023-05-05T03:17:09.486Z,77.3686
2023-05-05T03:18:09.481Z,76.9915
2023-05-05T03:19:12.254Z,77.0442
2023-05-05T03:20:15.030Z,77.1081
2023-05-05T03:21:17.655Z,77.3316
2023-05-05T03:22:20.256Z,77.4656
2023-05-05T03:23:22.950Z,77.6081
2023-05-05T03:24:25.594Z,77.4501
2023-05-05T03:25:28.219Z,77.4532
2023-05-05T03:26:30.828Z,77.5038
2023-05-05T03:27:33.438Z,77.1808
2023-05-05T03:28:35.991Z,77.0493
2023-05-05T03:29:38.592Z,76.5268
2023-05-05T03:30:41.198Z,76.1357
2023-05-05T03:31:43.886Z,75.5672
2023-05-05T03:32:46.505Z,75.2042
2023-05-05T03:33:49.041Z,74.8110
2023-05-05T03:34:51.603Z,74.5809
2023-05-05T03:35:54.165Z,74.1328
2023-05-05T03:36:56.744Z,73.7165
2023-05-05T03:37:59.273Z,73.7878
2023-05-05T03:39:01.777Z,73.8943
2023-05-05T03:40:04.347Z,73.9685
2023-05-05T03:41:06.921Z,74.0792
2023-05-05T03:42:09.533Z,74.0647
2023-05-05T03:43:12.065Z,74.1988
2023-05-05T03:44:14.675Z,73.9802
2023-05-05T03:45:17.259Z,73.6008
2023-05-05T03:46:19.886Z,73.3780
2023-05-05T03:47:22.474Z,73.1332
2023-05-05T03:48:25.061Z,73.1302
2023-05-05T03:49:27.634Z,72.8233
2023-05-05T03:50:30.216Z,72.5980
2023-05-05T03:51:32.789Z,72.4689
2023-05-05T03:52:35.372Z,72.3720
2023-05-05T03:53:38.025Z,72.1885
2023-05-05T03:54:40.608Z,72.0026
2023-05-05T03:55:43.246Z,71.3135
2023-05-05T03:56:45.816Z,71.3343
2023-05-05T03:57:48.457Z,71.4821
2023-05-05T03:58:51.056Z,71.8452
2023-05-05T03:59:53.610Z,72.0122
2023-05-05T04:00:56.208Z,72.1171
2023-05-05T04:01:58.829Z,72.1098
2023-05-05T04:03:01.523Z,72.5106
2023-05-05T04:04:04.208Z,72.3074
2023-05-05T04:05:06.760Z,72.2151
2023-05-05T04:06:09.338Z,72.6481
2023-05-05T04:07:11.917Z,73.0098
2023-05-05T04:08:14.491Z,72.8990
2023-05-05T04:09:17.035Z,72.4164
2023-05-05T04:10:19.660Z,72.0965
2023-05-05T04:11:22.264Z,72.1367
2023-05-05T04:12:24.886Z,72.2378
2023-05-05T04:13:27.429Z,72.0796
2023-05-05T04:14:29.991Z,72.2914
2023-05-05T04:15:32.555Z,73.0235
2023-05-05T04:16:35.127Z,73.3882
2023-05-05T04:17:37.813Z,73.8426
2023-05-05T04:18:40.407Z,73.9620
2023-05-05T04:19:43.020Z,74.4400
2023-05-05T04:20:45.594Z,74.8280
2023-05-05T04:21:48.190Z,75.1356
2023-05-05T04:22:52.597Z,75.2739
2023-05-05T04:23:52.718Z,74.9137
2023-05-05T04:24:55.334Z,74.8028
2023-05-05T04:25:57.900Z,74.9045
2023-05-05T04:27:00.495Z,75.5870
2023-05-05T04:28:03.117Z,75.5826
2023-05-05T04:29:05.676Z,75.4795
2023-05-05T04:30:08.520Z,75.2173
2023-05-05T04:31:08.458Z,75.4208
2023-05-05T04:32:11.134Z,75.0382
2023-05-05T04:33:13.761Z,74.9507
2023-05-05T04:34:16.394Z,74.9477
2023-05-05T04:35:18.962Z,74.5466
2023-05-05T04:36:18.994Z,74.5640
2023-05-05T04:37:19.268Z,75.0381
2023-05-05T04:38:21.879Z,74.5007
2023-05-05T04:39:24.437Z,74.4283
2023-05-05T04:40:26.971Z,74.0325
2023-05-05T04:41:30.153Z,74.0923
2023-05-05T04:42:30.057Z,74.6802
2023-05-05T04:43:32.735Z,74.9194
2023-05-05T04:44:35.319Z,74.9211
2023-05-05T04:45:37.866Z,74.5235
2023-05-05T04:46:40.504Z,74.3188
2023-05-05T04:47:43.090Z,74.3818
2023-05-05T04:48:45.626Z,74.2674
2023-05-05T04:49:48.217Z,74.2015
2023-05-05T04:50:50.785Z,74.5845
2023-05-05T04:51:53.511Z,74.5257
2023-05-05T04:52:56.095Z,74.8678
2023-05-05T04:53:58.669Z,74.9568
2023-05-05T04:55:01.266Z,74.9316
2023-05-05T04:56:03.867Z,75.0865
2023-05-05T04:57:06.437Z,75.4783
2023-05-05T04:58:09.070Z,76.1812
2023-05-05T04:59:11.676Z,76.4866
2023-05-05T05:00:14.271Z,76.6473
2023-05-05T05:01:16.849Z,76.4045
2023-05-05T05:02:19.597Z,75.5188
2023-05-05T05:03:19.552Z,75.0609
2023-05-05T05:04:19.508Z,74.5206
2023-05-05T05:05:22.281Z,73.9179
2023-05-05T05:06:24.908Z,72.8772
2023-05-05T05:07:27.488Z,72.5064
2023-05-05T05:08:30.076Z,72.5991
2023-05-05T05:09:32.706Z,73.5422
2023-05-05T05:10:35.433Z,74.3523
2023-05-05T05:11:37.990Z,75.0614
2023-05-05T05:12:40.635Z,76.1062
2023-05-05T05:13:43.169Z,76.7830
2023-05-05T05:14:45.746Z,77.1233
2023-05-05T05:15:48.301Z,77.5251
2023-05-05T05:16:50.924Z,77.8324
2023-05-05T05:17:53.601Z,78.3267
2023-05-05T05:18:56.211Z,78.9050
2023-05-05T05:19:58.801Z,79.4295
2023-05-05T05:21:01.435Z,79.6642
2023-05-05T05:22:04.012Z,79.7224
2023-05-05T05:23:06.720Z,79.8461
2023-05-05T05:24:09.260Z,80.4399
2023-05-05T05:25:11.853Z,80.6835
2023-05-05T05:26:14.402Z,80.8354
2023-05-05T05:27:17.019Z,81.1492
2023-05-05T05:28:19.640Z,81.4438
2023-05-05T05:29:22.236Z,81.4898
2023-05-05T05:30:24.802Z,81.5565
2023-05-05T05:31:27.372Z,81.5104
2023-05-05T05:32:30.019Z,81.5271
2023-05-05T05:33:32.657Z,81.4144
2023-05-05T05:34:35.474Z,81.2838
2023-05-05T05:35:35.279Z,81.4330
2023-05-05T05:36:37.878Z,81.4580
2023-05-05T05:37:40.496Z,81.4361
2023-05-05T05:38:43.177Z,81.4352
2023-05-05T05:39:45.793Z,81.2444
2023-05-05T05:40:48.379Z,81.2727
2023-05-05T05:41:51.043Z,81.2813
2023-05-05T05:42:53.686Z,81.3356
2023-05-05T05:43:56.320Z,81.4212
2023-05-05T05:44:59.120Z,81.3223
2023-05-05T05:45:58.889Z,81.3920
2023-05-05T05:47:01.501Z,81.1850
2023-05-05T05:48:04.101Z,80.9812
2023-05-05T05:49:06.681Z,80.9201
2023-05-05T05:50:09.478Z,80.8272
2023-05-05T05:51:09.413Z,80.7776
2023-05-05T05:52:11.992Z,80.8520
2023-05-05T05:53:14.574Z,80.7385
2023-05-05T05:54:17.170Z,80.2802
2023-05-05T05:55:19.728Z,79.5803
2023-05-05T05:56:22.275Z,79.1093
2023-05-05T05:57:24.899Z,78.8122
2023-05-05T05:58:27.528Z,78.8425
2023-05-05T05:59:30.185Z,78.7775
2023-05-05T06:00:32.944Z,78.3185
2023-05-05T06:01:32.920Z,78.1011
2023-05-05T06:02:35.626Z,77.7165
2023-05-05T06:03:38.441Z,77.8464
2023-05-05T06:04:38.329Z,77.8670
2023-05-05T06:05:40.965Z,76.1430
2023-05-05T06:06:43.623Z,75.6072
2023-05-05T06:07:46.280Z,76.0583
2023-05-05T06:08:48.959Z,76.1373
2023-05-05T06:09:51.591Z,76.3725
2023-05-05T06:10:54.280Z,77.1751
2023-05-05T06:11:56.981Z,77.3455
2023-05-05T06:12:59.693Z,77.1822
2023-05-05T06:13:59.604Z,77.2428
2023-05-05T06:15:02.266Z,77.4314
2023-05-05T06:16:05.007Z,77.6124
2023-05-05T06:17:07.575Z,77.2892
2023-05-05T06:18:10.414Z,76.3030
2023-05-05T06:19:10.455Z,75.8862
2023-05-05T06:20:13.047Z,75.3826
2023-05-05T06:21:15.687Z,74.7766
2023-05-05T06:22:18.467Z,74.0505
2023-05-05T06:23:18.295Z,73.6578
2023-05-05T06:24:21.075Z,73.3883
2023-05-05T06:25:20.919Z,73.2578
2023-05-05T06:26:23.554Z,72.4550
2023-05-05T06:27:26.154Z,73.1899
2023-05-05T06:28:28.788Z,72.9584
2023-05-05T06:29:31.388Z,72.5418
2023-05-05T06:30:33.995Z,72.5929
2023-05-05T06:31:36.691Z,73.1485
2023-05-05T06:32:39.451Z,73.1264
2023-05-05T06:33:42.101Z,72.4283
2023-05-05T06:34:44.723Z,72.1608
2023-05-05T06:35:47.354Z,70.8599
2023-05-05T06:36:50.151Z,69.0016
2023-05-05T06:37:52.779Z,68.3515
2023-05-05T06:38:55.445Z,67.9771
2023-05-05T06:39:58.075Z,68.4274
2023-05-05T06:41:00.737Z,69.3670
2023-05-05T06:42:03.428Z,69.0965
2023-05-05T06:43:06.083Z,68.1530
2023-05-05T06:44:08.718Z,67.3319
2023-05-05T06:45:11.358Z,67.8531
2023-05-05T06:46:11.386Z,67.9958
2023-05-05T06:47:11.361Z,67.2173
2023-05-05T06:48:11.327Z,67.4842
2023-05-05T06:49:13.990Z,67.3694
2023-05-05T06:50:16.593Z,66.9073
2023-05-05T06:51:19.200Z,66.6438
2023-05-05T06:52:21.991Z,65.8606
2023-05-05T06:53:21.800Z,65.6461
2023-05-05T06:54:24.357Z,65.6929
2023-05-05T06:55:27.013Z,65.1974
2023-05-05T06:56:29.634Z,65.5802
2023-05-05T06:57:32.244Z,64.9359
2023-05-05T06:58:34.874Z,64.8658
2023-05-05T06:59:37.465Z,65.4684
2023-05-05T07:00:40.070Z,64.9939
2023-05-05T07:01:42.667Z,64.0450
2023-05-05T07:02:45.340Z,63.8132
2023-05-05T07:03:48.032Z,65.2185
2023-05-05T07:04:47.988Z,65.9565
2023-05-05T07:05:50.622Z,65.0444
2023-05-05T07:06:53.272Z,64.6607
2023-05-05T07:07:55.850Z,64.3457
2023-05-05T07:08:58.452Z,64.5083
2023-05-05T07:10:01.087Z,64.4086
2023-05-05T07:11:03.790Z,65.1371
2023-05-05T07:12:06.416Z,65.0336
2023-05-05T07:13:09.079Z,64.0705
2023-05-05T07:14:09.077Z,63.6381
2023-05-05T07:15:26.052Z,63.8638
2023-05-05T07:16:11.917Z,64.1437
2023-05-05T07:17:14.532Z,64.1962
2023-05-05T07:18:17.165Z,64.1337
2023-05-05T07:19:19.820Z,63.8370
2023-05-05T07:20:22.415Z,64.4066
2023-05-05T07:21:25.082Z,65.0794
2023-05-05T07:22:27.659Z,64.6631
2023-05-05T07:23:30.239Z,64.5106
2023-05-05T07:24:32.866Z,64.5884
2023-05-05T07:25:35.486Z,64.4115
2023-05-05T07:26:38.232Z,64.3888
2023-05-05T07:27:40.777Z,64.4749
2023-05-05T07:28:43.385Z,64.1060
2023-05-05T07:29:46.015Z,63.5868
2023-05-05T07:30:48.622Z,63.8140
2023-05-05T07:31:51.393Z,64.3517
2023-05-05T07:32:51.356Z,64.0201
2023-05-05T07:33:51.264Z,63.7407
2023-05-05T07:34:53.850Z,63.6790
2023-05-05T07:35:56.456Z,63.6173
2023-05-05T07:36:59.112Z,63.1239
2023-05-05T07:38:01.686Z,63.5599
2023-05-05T07:39:04.317Z,64.1756
2023-05-05T07:40:07.169Z,64.8085
2023-05-05T07:41:07.186Z,64.6121
2023-05-05T07:42:09.819Z,64.8436
2023-05-05T07:43:12.464Z,64.9240
2023-05-05T07:44:15.041Z,64.4065
2023-05-05T07:45:17.659Z,63.8229
2023-05-05T07:46:20.336Z,64.5488
2023-05-05T07:47:20.225Z,63.9639
2023-05-05T07:48:22.779Z,64.2374
2023-05-05T07:49:25.405Z,64.0499
2023-05-05T07:50:28.040Z,63.5626
2023-05-05T07:51:32.023Z,63.4063
2023-05-05T07:52:45.365Z,63.7776
2023-05-05T07:53:33.119Z,64.6103
2023-05-05T07:54:35.818Z,64.8942
2023-05-05T07:55:38.349Z,64.5649
2023-05-05T07:56:40.999Z,64.8725
2023-05-05T07:57:43.726Z,64.5519
2023-05-05T07:58:46.325Z,64.4662
2023-05-05T07:59:48.977Z,64.3490
2023-05-05T08:00:51.606Z,64.1189
2023-05-05T08:01:55.037Z,64.0748
2023-05-05T08:02:55.016Z,64.3277
2023-05-05T08:03:57.626Z,63.7838
2023-05-05T08:05:00.241Z,63.9132
2023-05-05T08:06:02.804Z,63.6786
2023-05-05T08:07:05.376Z,63.4393
2023-05-05T08:08:08.141Z,63.3970
2023-05-05T08:09:10.685Z,63.4637
2023-05-05T08:10:13.308Z,63.3919
2023-05-05T08:11:15.935Z,63.8572
2023-05-05T08:12:18.494Z,64.2643
2023-05-05T08:13:21.175Z,63.7794
2023-05-05T08:14:23.770Z,64.5784
2023-05-05T08:15:26.372Z,64.0803
2023-05-05T08:16:28.996Z,63.6298
2023-05-05T08:17:31.571Z,63.5227
2023-05-05T08:18:34.240Z,64.0188
2023-05-05T08:19:36.763Z,63.5772
2023-05-05T08:20:39.373Z,63.5051
2023-05-05T08:21:41.973Z,63.2615
2023-05-05T08:22:44.642Z,63.0626
2023-05-05T08:23:47.298Z,62.7205
2023-05-05T08:24:49.903Z,62.9988
2023-05-05T08:25:52.509Z,62.9404
2023-05-05T08:26:55.126Z,62.9138
2023-05-05T08:27:55.402Z,62.0687
2023-05-05T08:28:58.064Z,61.3043
2023-05-05T08:30:00.600Z,60.6638
2023-05-05T08:31:03.237Z,60.2680
2023-05-05T08:32:05.801Z,60.0766
2023-05-05T08:33:08.467Z,60.0468
2023-05-05T08:34:11.073Z,60.2471
2023-05-05T08:35:13.859Z,60.0639
2023-05-05T08:36:13.970Z,60.4880
2023-05-05T08:37:16.629Z,60.5102
2023-05-05T08:38:19.189Z,61.1907
2023-05-05T08:39:21.767Z,61.1398
2023-05-05T08:40:24.290Z,60.5626
2023-05-05T08:41:26.915Z,59.9288
2023-05-05T08:42:37.253Z,59.8624
2023-05-05T08:43:29.540Z,60.3470
2023-05-05T08:44:32.122Z,59.6191
2023-05-05T08:45:34.718Z,59.4351
2023-05-05T08:46:37.353Z,59.1453
2023-05-05T08:47:39.966Z,59.6591
2023-05-05T08:48:42.589Z,59.6960
2023-05-05T08:49:45.312Z,59.7201
2023-05-05T08:50:47.855Z,59.2380
2023-05-05T08:51:50.447Z,59.7188
2023-05-05T08:52:51.383Z,59.3664
2023-05-05T08:53:51.306Z,59.5878
2023-05-05T08:54:53.887Z,59.4200
2023-05-05T08:55:56.515Z,58.9916
2023-05-05T08:56:59.065Z,58.9883
2023-05-05T08:58:01.673Z,58.6934
2023-05-05T08:59:04.323Z,58.5808
2023-05-05T09:00:06.878Z,58.1670
2023-05-05T09:01:09.479Z,58.4333
2023-05-05T09:02:12.058Z,58.0776
2023-05-05T09:03:14.728Z,58.4360
2023-05-05T09:04:14.661Z,58.5334
2023-05-05T09:05:17.202Z,58.2443
2023-05-05T09:06:19.739Z,59.6850
2023-05-05T09:07:22.322Z,59.7117
2023-05-05T09:08:24.887Z,59.4673
2023-05-05T09:09:27.390Z,59.4469
2023-05-05T09:10:29.990Z,60.1443
2023-05-05T09:11:32.577Z,60.2591
2023-05-05T09:12:35.138Z,59.6283
2023-05-05T09:13:37.647Z,59.3280
2023-05-05T09:14:40.192Z,59.2063
2023-05-05T09:15:42.720Z,59.9423
2023-05-05T09:16:45.297Z,58.9964
2023-05-05T09:17:47.893Z,58.3651
2023-05-05T09:18:50.485Z,57.9459
2023-05-05T09:19:53.026Z,58.0134
2023-05-05T09:20:56.878Z,57.9952
2023-05-05T09:21:55.759Z,58.0603
2023-05-05T09:22:58.296Z,57.9847
2023-05-05T09:24:07.433Z,57.7679
2023-05-05T09:25:00.913Z,57.7239
2023-05-05T09:26:03.505Z,58.6495
2023-05-05T09:27:06.030Z,58.5072
2023-05-05T09:28:08.656Z,58.2186
2023-05-05T09:29:11.190Z,57.8083
2023-05-05T09:30:13.776Z,57.5639
2023-05-05T09:31:16.517Z,57.2910
2023-05-05T09:32:16.403Z,57.0242
2023-05-05T09:33:19.026Z,56.9211
2023-05-05T09:34:21.547Z,57.5913
2023-05-05T09:35:24.095Z,57.3930
2023-05-05T09:36:24.034Z,57.6846
2023-05-05T09:37:26.622Z,57.5968
2023-05-05T09:38:29.168Z,58.1979
2023-05-05T09:39:31.799Z,58.2496
2023-05-05T09:40:34.407Z,58.6634
2023-05-05T09:41:36.944Z,58.8545
2023-05-05T09:42:39.460Z,58.9888
2023-05-05T09:43:40.292Z,58.3637
2023-05-05T09:44:42.832Z,57.8908
2023-05-05T09:45:45.409Z,57.9945
2023-05-05T09:46:48.044Z,58.2816
2023-05-05T09:47:47.913Z,57.7595
2023-05-05T09:48:47.841Z,57.2739
2023-05-05T09:49:50.354Z,56.9918
2023-05-05T09:50:52.923Z,57.0330
2023-05-05T09:51:55.534Z,57.1414
2023-05-05T09:52:58.076Z,56.9982
2023-05-05T09:54:00.664Z,57.0321
2023-05-05T09:55:03.236Z,57.4413
2023-05-05T09:56:05.902Z,57.1394
2023-05-05T09:57:08.527Z,57.0550
2023-05-05T09:58:11.128Z,56.6388
2023-05-05T09:59:13.672Z,56.8757
2023-05-05T10:00:16.230Z,56.4533
2023-05-05T10:01:18.855Z,55.9697
2023-05-05T10:02:21.404Z,55.9493
2023-05-05T10:03:23.953Z,56.7112
2023-05-05T10:04:26.528Z,56.3842
2023-05-05T10:05:29.109Z,56.8632
2023-05-05T10:06:31.733Z,56.0365
2023-05-05T10:07:34.264Z,55.7006
2023-05-05T10:08:36.777Z,55.2264
2023-05-05T10:09:39.258Z,55.0921
2023-05-05T10:10:41.882Z,55.0832
2023-05-05T10:11:44.405Z,55.3365
2023-05-05T10:12:46.955Z,54.9019
2023-05-05T10:13:49.497Z,54.6896
2023-05-05T10:14:52.010Z,54.7592
2023-05-05T10:15:54.583Z,54.8518
2023-05-05T10:16:57.103Z,54.9744
2023-05-05T10:18:06.720Z,55.3529
2023-05-05T10:18:59.611Z,54.6860
2023-05-05T10:20:02.157Z,54.7550
2023-05-05T10:21:04.737Z,53.9083
2023-05-05T10:22:07.283Z,53.8436
2023-05-05T10:23:09.833Z,53.6733
2023-05-05T10:24:12.418Z,53.7498
2023-05-05T10:25:14.929Z,53.6752
2023-05-05T10:26:17.458Z,53.3869
2023-05-05T10:27:19.997Z,54.3707
2023-05-05T10:28:22.568Z,53.6223
2023-05-05T10:29:25.094Z,53.0749
2023-05-05T10:30:27.623Z,53.5118
2023-05-05T10:31:30.323Z,53.0872
2023-05-05T10:32:51.150Z,53.3207
2023-05-05T10:33:32.906Z,53.6015
2023-05-05T10:34:35.540Z,52.7421
2023-05-05T10:35:38.081Z,53.3255
2023-05-05T10:36:40.602Z,53.6746
2023-05-05T10:37:43.137Z,52.9943
2023-05-05T10:38:45.690Z,52.8514
2023-05-05T10:39:48.236Z,52.7225
2023-05-05T10:40:50.756Z,53.8041
2023-05-05T10:41:53.321Z,54.3223
2023-05-05T10:42:55.832Z,53.7780
2023-05-05T10:43:58.358Z,53.8503
2023-05-05T10:45:00.946Z,54.3168
2023-05-05T10:46:00.907Z,54.7295
2023-05-05T10:47:00.990Z,54.4963
2023-05-05T10:48:03.638Z,53.8605
2023-05-05T10:49:03.443Z,54.3818
2023-05-05T10:50:06.135Z,54.3105
2023-05-05T10:51:05.978Z,54.1649
2023-05-05T10:52:08.647Z,54.2333
2023-05-05T10:53:08.485Z,54.2503
2023-05-05T10:54:11.072Z,54.5631
2023-05-05T10:55:13.664Z,54.4639
2023-05-05T10:56:16.184Z,53.7592
2023-05-05T10:57:18.802Z,53.5251
2023-05-05T10:58:21.368Z,53.8676
2023-05-05T10:59:23.923Z,54.0583
2023-05-05T11:00:26.479Z,54.1065
2023-05-05T11:01:29.205Z,53.9433
2023-05-05T11:02:29.159Z,53.7570
2023-05-05T11:03:29.056Z,53.3349
2023-05-05T11:04:31.727Z,53.4052
2023-05-05T11:05:34.292Z,53.3648
2023-05-05T11:06:36.880Z,53.5146
2023-05-05T11:07:39.480Z,52.9956
2023-05-05T11:08:42.032Z,52.7762
2023-05-05T11:09:44.637Z,51.1820
2023-05-05T11:10:47.205Z,50.4603
2023-05-05T11:11:49.754Z,50.1229
2023-05-05T11:12:52.498Z,51.8801
2023-05-05T11:13:52.540Z,52.0725
2023-05-05T11:14:55.090Z,50.5238
2023-05-05T11:15:57.615Z,49.5969
2023-05-05T11:17:00.163Z,48.2119
2023-05-05T11:18:06.640Z,48.1877
2023-05-05T11:19:04.305Z,47.2168
2023-05-05T11:20:06.983Z,45.9268
2023-05-05T11:21:07.077Z,45.1783
2023-05-05T11:22:09.936Z,45.2165
2023-05-05T11:23:09.788Z,45.4651
2023-05-05T11:24:10.590Z,44.9522
2023-05-05T11:25:13.196Z,43.4640
2023-05-05T11:26:15.668Z,42.1478
2023-05-05T11:27:18.183Z,43.8139
2023-05-05T11:28:18.011Z,42.2135
2023-05-05T11:29:20.474Z,42.3142
2023-05-05T11:30:22.990Z,43.9390
2023-05-05T11:31:25.510Z,43.1334
2023-05-05T11:32:27.969Z,42.4685
2023-05-05T11:33:30.461Z,42.0937
2023-05-05T11:34:32.860Z,42.8172
2023-05-05T11:35:35.321Z,42.5831
2023-05-05T11:36:37.742Z,44.6367
2023-05-05T11:37:40.193Z,43.8322
2023-05-05T11:38:42.643Z,43.6552
2023-05-05T11:39:45.027Z,42.3884
2023-05-05T11:40:47.518Z,41.7429
2023-05-05T11:41:49.954Z,41.5878
2023-05-05T11:42:52.422Z,42.4842
2023-05-05T11:43:54.807Z,47.5828
2023-05-05T11:44:57.250Z,46.4356
2023-05-05T11:45:59.682Z,44.8645
2023-05-05T11:47:02.094Z,43.9136
2023-05-05T11:48:04.583Z,43.5162
2023-05-05T11:49:04.408Z,43.1848
2023-05-05T11:50:04.368Z,42.5221
2023-05-05T11:51:03.977Z,41.1924
2023-05-05T11:52:06.402Z,41.0411
2023-05-05T11:53:08.794Z,41.7934
2023-05-05T11:54:11.335Z,42.1157
2023-05-05T11:55:13.742Z,41.9124
2023-05-05T11:56:16.241Z,42.2530
2023-05-05T11:57:18.626Z,41.8238
2023-05-05T11:58:21.018Z,42.5278
2023-05-05T11:59:20.820Z,42.7076
2023-05-05T12:00:20.740Z,43.4185
2023-05-05T12:01:20.701Z,43.3494
2023-05-05T12:02:20.655Z,44.2397
2023-05-05T12:03:20.685Z,45.0003
2023-05-05T12:04:20.765Z,44.2002
2023-05-05T12:05:20.705Z,45.2930
2023-05-05T12:06:20.699Z,45.4541
2023-05-05T12:07:20.705Z,45.2598
2023-05-05T12:08:20.708Z,44.9723
2023-05-05T12:09:20.701Z,45.2771
2023-05-05T12:10:20.701Z,44.8636
2023-05-05T12:11:20.678Z,44.1752
2023-05-05T12:12:20.689Z,43.7169
2023-05-05T12:13:20.806Z,43.0642
2023-05-05T12:14:20.876Z,43.2299
2023-05-05T12:15:20.837Z,43.4090
2023-05-05T12:16:20.849Z,42.5947
2023-05-05T12:17:20.766Z,43.0844
2023-05-05T12:18:20.766Z,42.8656
2023-05-05T12:19:20.705Z,43.6777
2023-05-05T12:20:20.611Z,45.3920
2023-05-05T12:21:20.564Z,44.5635
2023-05-05T12:22:20.501Z,44.5765
2023-05-05T12:23:20.481Z,44.7729
2023-05-05T12:24:20.412Z,44.8485
2023-05-05T12:25:20.410Z,43.8562
2023-05-05T12:26:20.366Z,42.9124
2023-05-05T12:27:20.295Z,41.6925
2023-05-05T12:28:20.387Z,41.7207
2023-05-05T12:29:20.347Z,42.6171
2023-05-05T12:30:20.315Z,42.6045
2023-05-05T12:31:20.278Z,42.9049
2023-05-05T12:32:20.231Z,43.2256